Time;durP1;ratioP1;P1;durP2;ratioP2;P2;SDS_P1;SDS_P2;PMS_P1;PMS_P2;Temp;Humidity;BMP_temperature;BMP_pressure;BME280_temperature;BME280_humidity;BME280_pressure;Samples;Min_cycle;Max_cycle;Signal;HPM_P1;HPM_P2
2022/05/16 00:01:31;;;;;;;;;;;21.80;52.60;;;;;;5060235;28;19928;-78
2022/05/16 00:03:57;;;;;;;;;;;21.80;52.60;;;;;;5057011;28;19928;-78
2022/05/16 00:06:24;;;;;;;;;;;21.70;52.60;;;;;;5061335;28;20447;-81
2022/05/16 00:08:55;;;;;;;;;;;21.70;52.80;;;;;;5061125;28;19928;-76
2022/05/16 00:11:21;;;;;;;;;;;21.70;53.00;;;;;;5062533;28;20040;-78
2022/05/16 00:13:48;;;;;;;;;;;21.60;53.10;;;;;;5060887;28;19932;-78
2022/05/16 00:16:15;;;;;;;;;;;21.60;53.30;;;;;;5064543;28;19928;-80
2022/05/16 00:18:41;;;;;;;;;;;21.50;53.30;;;;;;5062885;28;19932;-78
2022/05/16 00:21:08;;;;;;;;;;;21.50;53.40;;;;;;5061898;28;20679;-78
2022/05/16 00:23:34;;;;;;;;;;;21.50;53.50;;;;;;5064086;28;19928;-80
2022/05/16 00:26:02;;;;;;;;;;;21.40;53.60;;;;;;5059650;28;19928;-77
2022/05/16 00:28:29;;;;;;;;;;;21.40;53.60;;;;;;5062545;28;19951;-78
2022/05/16 00:30:55;;;;;;;;;;;21.40;53.70;;;;;;5059212;28;19936;-79
2022/05/16 00:33:22;;;;;;;;;;;21.30;53.70;;;;;;5060913;28;20452;-78
2022/05/16 00:35:49;;;;;;;;;;;21.30;53.80;;;;;;5060385;28;20046;-79
2022/05/16 00:38:16;;;;;;;;;;;21.20;54.50;;;;;;5060064;28;19933;-77
2022/05/16 00:40:42;;;;;;;;;;;21.20;54.10;;;;;;5061078;28;19935;-78
2022/05/16 00:43:12;;;;;;;;;;;21.20;54.10;;;;;;5062482;28;21976;-79
2022/05/16 00:45:39;;;;;;;;;;;21.10;54.20;;;;;;5058918;28;19936;-78
2022/05/16 00:48:06;;;;;;;;;;;21.10;55.00;;;;;;5061414;28;19929;-79
2022/05/16 00:50:39;;;;;;;;;;;21.10;54.50;;;;;;5062946;28;19939;-79
2022/05/16 00:53:06;;;;;;;;;;;21.00;54.40;;;;;;5062219;28;20335;-78
2022/05/16 00:55:33;;;;;;;;;;;21.00;54.60;;;;;;5062503;28;20598;-79
2022/05/16 00:58:02;;;;;;;;;;;20.90;54.60;;;;;;5058501;28;19928;-77
2022/05/16 01:00:32;;;;;;;;;;;20.90;54.70;;;;;;5061621;28;19935;-78
2022/05/16 01:05:45;;;;;;;;;;;20.80;54.90;;;;;;5063084;28;20010;-78
2022/05/16 01:08:13;;;;;;;;;;;20.80;55.00;;;;;;5061225;28;20764;-77
2022/05/16 01:10:40;;;;;;;;;;;20.80;55.00;;;;;;5060883;28;20071;-78
2022/05/16 01:13:07;;;;;;;;;;;20.80;55.10;;;;;;5062276;28;19939;-78
2022/05/16 01:15:37;;;;;;;;;;;20.70;55.10;;;;;;5055762;28;19929;-79
2022/05/16 01:18:04;;;;;;;;;;;20.70;55.20;;;;;;5064208;28;19932;-79
2022/05/16 01:20:40;;;;;;;;;;;20.60;55.10;;;;;;5061135;28;19928;-78
2022/05/16 01:23:09;;;;;;;;;;;20.60;55.20;;;;;;5061028;28;19933;-78
2022/05/16 01:25:35;;;;;;;;;;;20.60;55.30;;;;;;5061415;28;19933;-78
2022/05/16 01:28:04;;;;;;;;;;;20.60;55.40;;;;;;5063609;28;19928;-78
2022/05/16 01:30:32;;;;;;;;;;;20.50;55.40;;;;;;5059533;28;20007;-79
2022/05/16 01:32:58;;;;;;;;;;;20.50;55.40;;;;;;5064180;28;19951;-78
2022/05/16 01:35:27;;;;;;;;;;;20.50;55.50;;;;;;5062746;28;19924;-77
2022/05/16 01:44:02;;;;;;;;;;;20.40;55.60;;;;;;5053560;28;19989;-78
2022/05/16 01:46:31;;;;;;;;;;;20.30;55.60;;;;;;5062617;28;19962;-78
2022/05/16 01:48:58;;;;;;;;;;;20.30;55.80;;;;;;5062528;28;19928;-77
2022/05/16 01:51:25;;;;;;;;;;;20.30;55.90;;;;;;5059361;28;19932;-78
2022/05/16 01:53:52;;;;;;;;;;;20.20;55.90;;;;;;5062924;28;19928;-78
2022/05/16 01:56:18;;;;;;;;;;;20.20;56.10;;;;;;5061071;28;19931;-80
2022/05/16 01:58:45;;;;;;;;;;;20.20;56.10;;;;;;5063299;28;19933;-79
2022/05/16 02:01:14;;;;;;;;;;;20.10;56.00;;;;;;5061908;28;19943;-78
2022/05/16 02:03:41;;;;;;;;;;;20.10;56.10;;;;;;5068641;28;20416;-78
2022/05/16 02:06:10;;;;;;;;;;;20.10;56.10;;;;;;5065564;28;20281;-77
2022/05/16 02:08:37;;;;;;;;;;;20.10;56.20;;;;;;5067410;28;19980;-79
2022/05/16 02:11:04;;;;;;;;;;;20.10;56.30;;;;;;5068892;28;19932;-80
2022/05/16 02:13:31;;;;;;;;;;;20.00;56.40;;;;;;5069699;28;20517;-79
2022/05/16 02:15:59;;;;;;;;;;;19.90;56.40;;;;;;5070384;28;19928;-78
2022/05/16 02:18:27;;;;;;;;;;;19.90;56.50;;;;;;5069746;28;20478;-79
2022/05/16 02:24:38;;;;;;;;;;;19.90;56.60;;;;;;5069279;28;19940;-78
2022/05/16 02:26:26;;;;;;;;;;;19.90;56.70;;;;;;5070594;28;19931;-80
2022/05/16 02:28:52;;;;;;;;;;;19.80;56.70;;;;;;5067802;28;19936;-76
2022/05/16 02:31:19;;;;;;;;;;;19.80;56.90;;;;;;5069307;28;19925;-80
2022/05/16 02:33:48;;;;;;;;;;;19.80;56.90;;;;;;5068974;28;19928;-79
2022/05/16 02:36:15;;;;;;;;;;;19.80;57.00;;;;;;5067300;28;20352;-80
2022/05/16 02:38:42;;;;;;;;;;;19.70;57.10;;;;;;5068437;28;19935;-78
2022/05/16 02:41:09;;;;;;;;;;;19.70;57.10;;;;;;5064785;28;19928;-78
2022/05/16 02:43:35;;;;;;;;;;;19.70;57.10;;;;;;5070811;28;20764;-77
2022/05/16 02:46:02;;;;;;;;;;;19.70;57.80;;;;;;5066066;28;20459;-81
2022/05/16 02:48:29;;;;;;;;;;;19.60;57.20;;;;;;5070817;28;21309;-80
2022/05/16 02:50:56;;;;;;;;;;;19.60;57.30;;;;;;5069536;28;19928;-79
2022/05/16 02:53:23;;;;;;;;;;;19.50;57.30;;;;;;5072501;28;20566;-78
2022/05/16 02:55:50;;;;;;;;;;;19.60;57.50;;;;;;5072127;28;20406;-79
2022/05/16 02:58:16;;;;;;;;;;;19.60;57.50;;;;;;5071857;28;19928;-78
2022/05/16 03:00:43;;;;;;;;;;;19.50;57.50;;;;;;5071799;28;19938;-78
2022/05/16 03:03:09;;;;;;;;;;;19.50;57.50;;;;;;5070679;28;19928;-79
2022/05/16 03:05:36;;;;;;;;;;;19.50;57.60;;;;;;5068760;28;19932;-77
2022/05/16 03:08:04;;;;;;;;;;;19.40;57.60;;;;;;5068899;28;19929;-79
2022/05/16 03:10:31;;;;;;;;;;;19.40;57.70;;;;;;5069850;28;19932;-80
2022/05/16 03:12:57;;;;;;;;;;;19.40;57.80;;;;;;5065983;28;19951;-78
2022/05/16 03:15:24;;;;;;;;;;;19.40;57.90;;;;;;5065197;28;19932;-80
2022/05/16 03:17:50;;;;;;;;;;;19.30;57.90;;;;;;5066521;28;20003;-80
2022/05/16 03:20:17;;;;;;;;;;;19.30;57.90;;;;;;5067389;28;19939;-78
2022/05/16 03:22:44;;;;;;;;;;;19.30;57.90;;;;;;5067720;28;19928;-79
2022/05/16 03:25:12;;;;;;;;;;;19.30;58.10;;;;;;5066529;28;19932;-79
2022/05/16 03:27:39;;;;;;;;;;;19.30;58.10;;;;;;5067790;28;19962;-80
2022/05/16 03:30:07;;;;;;;;;;;19.20;58.20;;;;;;5063794;28;20657;-78
2022/05/16 03:32:34;;;;;;;;;;;19.20;58.30;;;;;;5068606;28;19928;-80
2022/05/16 03:35:00;;;;;;;;;;;19.20;58.30;;;;;;5064733;28;21221;-78
2022/05/16 03:37:27;;;;;;;;;;;19.10;58.40;;;;;;5063694;28;19928;-80
2022/05/16 03:42:39;;;;;;;;;;;19.10;58.50;;;;;;5065034;28;19932;-79
2022/05/16 03:45:05;;;;;;;;;;;19.10;59.10;;;;;;5065948;28;19951;-78
2022/05/16 03:47:32;;;;;;;;;;;19.10;58.60;;;;;;5067164;28;19935;-79
2022/05/16 03:49:59;;;;;;;;;;;19.10;58.60;;;;;;5061481;28;19936;-79
2022/05/16 03:52:25;;;;;;;;;;;18.90;58.60;;;;;;5064964;28;19928;-79
2022/05/16 03:54:52;;;;;;;;;;;19.00;58.70;;;;;;5062124;28;19924;-79
2022/05/16 03:57:18;;;;;;;;;;;19.00;58.70;;;;;;5066710;28;19966;-80
2022/05/16 03:59:47;;;;;;;;;;;19.00;58.80;;;;;;5063999;28;19936;-79
2022/05/16 04:02:14;;;;;;;;;;;18.90;58.80;;;;;;5060922;28;19933;-78
2022/05/16 04:04:41;;;;;;;;;;;18.90;58.80;;;;;;5063565;28;19925;-80
2022/05/16 04:07:08;;;;;;;;;;;18.90;58.90;;;;;;5063680;28;19944;-79
2022/05/16 04:09:35;;;;;;;;;;;18.90;59.10;;;;;;5063732;28;19935;-81
2022/05/16 04:12:02;;;;;;;;;;;18.80;59.20;;;;;;5063665;28;20370;-76
2022/05/16 04:14:28;;;;;;;;;;;18.80;59.30;;;;;;5063602;28;19928;-80
2022/05/16 04:16:58;;;;;;;;;;;18.80;59.30;;;;;;5062304;28;19936;-79
2022/05/16 04:19:25;;;;;;;;;;;18.80;59.40;;;;;;5063268;28;20284;-79
2022/05/16 04:21:51;;;;;;;;;;;18.80;59.40;;;;;;5059522;28;20407;-77
2022/05/16 04:24:18;;;;;;;;;;;18.70;59.50;;;;;;5063613;28;19944;-79
2022/05/16 04:26:45;;;;;;;;;;;18.70;59.60;;;;;;5062852;28;19936;-80
2022/05/16 04:29:12;;;;;;;;;;;18.70;59.60;;;;;;5062096;28;19935;-80
2022/05/16 04:31:38;;;;;;;;;;;18.70;59.70;;;;;;5057112;28;19928;-80
2022/05/16 04:34:09;;;;;;;;;;;18.70;59.80;;;;;;5063784;28;19928;-77
2022/05/16 04:36:36;;;;;;;;;;;18.70;59.90;;;;;;5059057;28;20067;-81
2022/05/16 04:39:03;;;;;;;;;;;18.70;59.90;;;;;;5063545;28;20368;-82
2022/05/16 04:44:14;;;;;;;;;;;18.70;60.10;;;;;;5067059;28;19939;-79
2022/05/16 04:46:40;;;;;;;;;;;18.60;60.10;;;;;;5064109;28;19929;-81
2022/05/16 04:49:08;;;;;;;;;;;18.60;60.20;;;;;;5061939;28;19939;-79
2022/05/16 04:51:35;;;;;;;;;;;18.60;60.20;;;;;;5060991;28;19932;-81
2022/05/16 04:54:01;;;;;;;;;;;18.60;60.30;;;;;;5063432;28;19932;-79
2022/05/16 04:56:28;;;;;;;;;;;18.60;60.30;;;;;;5062012;28;19943;-79
2022/05/16 04:58:54;;;;;;;;;;;18.60;60.50;;;;;;5063754;28;19936;-80
2022/05/16 05:01:21;;;;;;;;;;;18.60;60.60;;;;;;5062690;28;19935;-80
2022/05/16 05:03:47;;;;;;;;;;;18.60;60.70;;;;;;5058053;28;19936;-79
2022/05/16 05:06:15;;;;;;;;;;;18.60;60.80;;;;;;5062970;28;19928;-80
2022/05/16 05:08:42;;;;;;;;;;;18.60;60.90;;;;;;5065658;28;19935;-79
2022/05/16 05:16:38;;;;;;;;;;;18.60;61.10;;;;;;5061593;28;20075;-77
2022/05/16 05:19:05;;;;;;;;;;;18.60;61.70;;;;;;5060368;28;19932;-78
2022/05/16 05:21:34;;;;;;;;;;;18.50;63.90;;;;;;5060961;28;19935;-79
2022/05/16 05:24:00;;;;;;;;;;;18.40;63.50;;;;;;5061243;28;19943;-79
2022/05/16 05:26:27;;;;;;;;;;;18.40;63.30;;;;;;5065862;28;19932;-79
2022/05/16 05:28:54;;;;;;;;;;;18.40;63.50;;;;;;5064308;28;19925;-80
2022/05/16 05:31:25;;;;;;;;;;;18.40;63.70;;;;;;5064349;28;19932;-80
2022/05/16 05:33:51;;;;;;;;;;;18.40;63.60;;;;;;5060347;28;19928;-79
2022/05/16 05:36:18;;;;;;;;;;;18.40;63.70;;;;;;5065885;28;19925;-79
2022/05/16 05:38:50;;;;;;;;;;;18.40;63.70;;;;;;5064361;28;20019;-77
2022/05/16 05:41:17;;;;;;;;;;;18.40;63.70;;;;;;5063079;28;20343;-76
2022/05/16 05:43:43;;;;;;;;;;;18.40;63.60;;;;;;5056578;28;19936;-69
2022/05/16 05:46:10;;;;;;;;;;;18.40;63.50;;;;;;5061142;28;19936;-67
2022/05/16 05:48:36;;;;;;;;;;;18.30;63.50;;;;;;5056479;28;19929;-67
2022/05/16 05:51:03;;;;;;;;;;;18.40;63.60;;;;;;5059073;28;19940;-70
2022/05/16 05:53:30;;;;;;;;;;;18.40;63.60;;;;;;5058681;28;19939;-69
2022/05/16 05:55:58;;;;;;;;;;;18.30;63.40;;;;;;5055934;28;20047;-67
2022/05/16 05:58:24;;;;;;;;;;;18.30;63.60;;;;;;5057462;28;20213;-71
2022/05/16 06:00:51;;;;;;;;;;;18.40;63.50;;;;;;5055687;28;20399;-72
2022/05/16 06:03:17;;;;;;;;;;;18.30;63.60;;;;;;5055106;28;20620;-67
2022/05/16 06:05:44;;;;;;;;;;;18.30;63.50;;;;;;5059957;28;19928;-73
2022/05/16 06:08:11;;;;;;;;;;;18.30;63.30;;;;;;5050775;28;20017;-68
2022/05/16 06:10:37;;;;;;;;;;;18.30;63.30;;;;;;5060896;28;20021;-66
2022/05/16 06:13:05;;;;;;;;;;;18.40;63.50;;;;;;5050147;28;20735;-66
2022/05/16 06:15:32;;;;;;;;;;;18.40;63.90;;;;;;5052416;28;20709;-78
2022/05/16 06:17:58;;;;;;;;;;;18.30;63.90;;;;;;5055148;28;20562;-76
2022/05/16 06:20:25;;;;;;;;;;;18.40;63.80;;;;;;5057457;28;20410;-76
2022/05/16 06:22:52;;;;;;;;;;;18.40;63.80;;;;;;5054362;28;20094;-76
2022/05/16 06:25:39;;;;;;;;;;;18.40;63.70;;;;;;5055276;28;19929;-76
2022/05/16 06:28:09;;;;;;;;;;;18.40;64.20;;;;;;5052621;28;19971;-75
2022/05/16 06:30:37;;;;;;;;;;;18.40;64.30;;;;;;5052354;28;20447;-75
2022/05/16 06:33:04;;;;;;;;;;;18.40;64.10;;;;;;5051736;28;19924;-78
2022/05/16 06:35:31;;;;;;;;;;;18.40;64.00;;;;;;5054456;28;19936;-75
2022/05/16 06:38:04;;;;;;;;;;;18.50;64.00;;;;;;5052897;28;19932;-77
2022/05/16 06:40:30;;;;;;;;;;;18.50;64.50;;;;;;5050517;28;19940;-78
2022/05/16 06:42:57;;;;;;;;;;;18.50;64.60;;;;;;5052389;28;19928;-76
2022/05/16 06:45:25;;;;;;;;;;;18.50;64.90;;;;;;5054362;28;19928;-76
2022/05/16 06:47:51;;;;;;;;;;;18.50;65.30;;;;;;5057440;28;20638;-76
2022/05/16 06:50:18;;;;;;;;;;;18.50;65.60;;;;;;5056765;28;20385;-78
2022/05/16 06:52:45;;;;;;;;;;;18.50;65.80;;;;;;5058723;28;20292;-76
2022/05/16 06:55:12;;;;;;;;;;;18.60;65.90;;;;;;5059157;28;19933;-75
2022/05/16 06:57:38;;;;;;;;;;;18.50;66.00;;;;;;5060356;28;19935;-76
2022/05/16 07:00:06;;;;;;;;;;;18.60;66.10;;;;;;5058235;28;21306;-77
2022/05/16 07:02:35;;;;;;;;;;;18.60;66.10;;;;;;5059521;28;20015;-78
2022/05/16 07:05:02;;;;;;;;;;;18.60;65.70;;;;;;5056910;28;19935;-80
2022/05/16 07:07:29;;;;;;;;;;;18.60;65.70;;;;;;5057723;28;19928;-76
2022/05/16 07:09:55;;;;;;;;;;;18.60;65.70;;;;;;5057114;28;19928;-78
2022/05/16 07:12:22;;;;;;;;;;;18.70;65.60;;;;;;5060494;28;19932;-76
2022/05/16 07:14:49;;;;;;;;;;;18.70;65.50;;;;;;5057138;28;19963;-76
2022/05/16 07:17:15;;;;;;;;;;;18.70;65.40;;;;;;5059279;28;19929;-76
2022/05/16 07:19:43;;;;;;;;;;;18.70;65.50;;;;;;5058051;28;19933;-77
2022/05/16 07:22:11;;;;;;;;;;;18.70;65.50;;;;;;5057956;28;19928;-77
2022/05/16 07:24:37;;;;;;;;;;;18.80;65.70;;;;;;5051725;28;19928;-76
2022/05/16 07:29:49;;;;;;;;;;;18.90;65.50;;;;;;5058082;28;19935;-79
2022/05/16 07:32:15;;;;;;;;;;;18.90;65.50;;;;;;5060308;28;19924;-78
2022/05/16 07:34:43;;;;;;;;;;;19.00;65.80;;;;;;5060275;28;19928;-77
2022/05/16 07:37:10;;;;;;;;;;;19.00;65.60;;;;;;5061942;28;19935;-77
2022/05/16 07:39:38;;;;;;;;;;;19.00;65.50;;;;;;5055723;28;19924;-76
2022/05/16 07:42:06;;;;;;;;;;;19.10;65.60;;;;;;5058301;28;19928;-77
2022/05/16 07:44:33;;;;;;;;;;;19.10;65.70;;;;;;5057790;28;20026;-78
2022/05/16 07:47:00;;;;;;;;;;;19.10;65.80;;;;;;5060936;28;20071;-77
2022/05/16 07:49:26;;;;;;;;;;;19.10;65.80;;;;;;5056711;28;19939;-76
2022/05/16 07:51:54;;;;;;;;;;;19.20;65.70;;;;;;5052584;28;20570;-77
2022/05/16 07:54:21;;;;;;;;;;;19.20;66.40;;;;;;5057832;28;19936;-76
2022/05/16 07:56:48;;;;;;;;;;;19.20;65.60;;;;;;5060577;28;19932;-76
2022/05/16 07:59:16;;;;;;;;;;;19.30;65.60;;;;;;5052957;28;19935;-76
2022/05/16 08:01:43;;;;;;;;;;;19.20;65.70;;;;;;5056884;28;19940;-77
2022/05/16 08:04:10;;;;;;;;;;;19.30;65.60;;;;;;5059422;28;20644;-78
2022/05/16 08:06:36;;;;;;;;;;;19.30;65.70;;;;;;5054796;28;19932;-77
2022/05/16 08:11:48;;;;;;;;;;;19.40;65.80;;;;;;5058741;28;19943;-77
2022/05/16 08:14:15;;;;;;;;;;;19.50;66.00;;;;;;5053162;28;19932;-76
2022/05/16 08:16:41;;;;;;;;;;;19.50;66.00;;;;;;5055162;28;19932;-77
2022/05/16 08:19:08;;;;;;;;;;;19.50;66.10;;;;;;5060363;28;19939;-78
2022/05/16 08:21:36;;;;;;;;;;;19.60;66.20;;;;;;5056608;28;20771;-77
2022/05/16 08:24:04;;;;;;;;;;;19.60;66.30;;;;;;5058343;28;19939;-77
2022/05/16 08:26:32;;;;;;;;;;;19.70;66.30;;;;;;5058127;28;20625;-78
2022/05/16 08:28:59;;;;;;;;;;;19.70;66.20;;;;;;5060188;28;19933;-78
2022/05/16 08:31:28;;;;;;;;;;;19.70;66.30;;;;;;5057655;28;19936;-77
2022/05/16 08:33:54;;;;;;;;;;;19.80;66.30;;;;;;5057123;28;19928;-76
2022/05/16 08:41:53;;;;;;;;;;;19.90;66.20;;;;;;5055887;28;19940;-80
2022/05/16 08:44:22;;;;;;;;;;;19.90;66.00;;;;;;5060956;28;20312;-78
2022/05/16 08:46:58;;;;;;;;;;;20.00;66.00;;;;;;5059969;28;20039;-79
2022/05/16 08:49:27;;;;;;;;;;;20.10;66.10;;;;;;5055421;28;19931;-78
2022/05/16 08:51:55;;;;;;;;;;;20.10;66.00;;;;;;5058694;28;20262;-77
2022/05/16 08:54:28;;;;;;;;;;;20.20;66.00;;;;;;5061973;28;19928;-77
2022/05/16 08:56:56;;;;;;;;;;;20.20;66.00;;;;;;5058610;28;19939;-76
2022/05/16 08:59:25;;;;;;;;;;;20.20;65.80;;;;;;5056915;28;19933;-77
2022/05/16 09:01:53;;;;;;;;;;;20.30;65.80;;;;;;5059685;28;20391;-77
2022/05/16 09:04:23;;;;;;;;;;;20.30;65.80;;;;;;5061614;28;19965;-76
2022/05/16 09:06:55;;;;;;;;;;;20.40;65.70;;;;;;5060530;28;19933;-78
2022/05/16 09:09:23;;;;;;;;;;;20.40;65.60;;;;;;5053600;28;19935;-78
2022/05/16 09:11:55;;;;;;;;;;;20.50;65.50;;;;;;5051153;28;19934;-79
2022/05/16 09:14:34;;;;;;;;;;;20.50;65.50;;;;;;5055318;28;19949;-77
2022/05/16 09:17:03;;;;;;;;;;;20.50;65.40;;;;;;5056064;28;19932;-77
2022/05/16 09:19:41;;;;;;;;;;;20.60;65.30;;;;;;5054818;28;20012;-75
2022/05/16 09:22:09;;;;;;;;;;;20.60;65.20;;;;;;5055912;28;19940;-77
2022/05/16 09:24:37;;;;;;;;;;;20.60;64.90;;;;;;5058489;28;20008;-78
2022/05/16 09:27:07;;;;;;;;;;;20.70;64.70;;;;;;5061127;28;19929;-76
2022/05/16 09:29:39;;;;;;;;;;;20.80;64.70;;;;;;5063521;28;19936;-79
2022/05/16 09:32:09;;;;;;;;;;;20.80;64.60;;;;;;5056871;28;19936;-76
2022/05/16 09:34:35;;;;;;;;;;;20.90;65.30;;;;;;5062903;28;19928;-78
2022/05/16 09:37:02;;;;;;;;;;;21.00;64.60;;;;;;5055607;28;19929;-76
2022/05/16 09:39:31;;;;;;;;;;;21.00;64.50;;;;;;5057714;28;19924;-77
2022/05/16 09:42:03;;;;;;;;;;;21.10;64.40;;;;;;5057052;28;20466;-77
2022/05/16 09:44:31;;;;;;;;;;;21.20;64.50;;;;;;5057731;28;19968;-76
2022/05/16 09:47:19;;;;;;;;;;;21.20;64.30;;;;;;5059058;28;19932;-77
2022/05/16 09:50:03;;;;;;;;;;;21.30;64.10;;;;;;5060520;28;19968;-77
2022/05/16 09:52:30;;;;;;;;;;;21.40;64.00;;;;;;5055319;28;19928;-78
2022/05/16 09:54:59;;;;;;;;;;;21.50;63.80;;;;;;5057236;28;20416;-78
2022/05/16 09:57:26;;;;;;;;;;;21.50;63.60;;;;;;5053331;28;19929;-78
2022/05/16 09:59:54;;;;;;;;;;;21.60;63.30;;;;;;5061463;28;19936;-77
2022/05/16 10:02:24;;;;;;;;;;;21.70;63.10;;;;;;5058538;28;20281;-79
2022/05/16 10:04:55;;;;;;;;;;;21.70;62.90;;;;;;5061089;28;19932;-79
2022/05/16 10:07:22;;;;;;;;;;;21.80;62.60;;;;;;5058076;28;20299;-78
2022/05/16 10:09:51;;;;;;;;;;;21.90;62.20;;;;;;5061817;28;19944;-78
2022/05/16 10:12:19;;;;;;;;;;;22.00;62.10;;;;;;5061845;28;19939;-77
2022/05/16 10:14:46;;;;;;;;;;;22.00;61.60;;;;;;5057336;28;20479;-78
2022/05/16 10:17:16;;;;;;;;;;;22.10;61.10;;;;;;5054291;28;19929;-77
2022/05/16 10:19:44;;;;;;;;;;;22.20;61.00;;;;;;5058092;28;20394;-78
2022/05/16 10:22:14;;;;;;;;;;;22.30;60.70;;;;;;5064452;28;19928;-78
2022/05/16 10:24:44;;;;;;;;;;;22.30;60.20;;;;;;5064288;28;20256;-79
2022/05/16 10:27:12;;;;;;;;;;;22.40;59.90;;;;;;5065809;28;19929;-77
2022/05/16 10:29:40;;;;;;;;;;;22.50;59.80;;;;;;5062053;28;19931;-77
2022/05/16 10:34:57;;;;;;;;;;;22.60;59.40;;;;;;5066018;28;19932;-76
2022/05/16 10:37:25;;;;;;;;;;;22.60;59.10;;;;;;5063291;28;19934;-78
2022/05/16 10:39:54;;;;;;;;;;;22.60;58.80;;;;;;5064751;28;19932;-77
2022/05/16 10:42:24;;;;;;;;;;;22.70;58.40;;;;;;5062662;28;19932;-76
2022/05/16 10:44:53;;;;;;;;;;;22.70;58.40;;;;;;5059055;28;20363;-78
2022/05/16 10:47:23;;;;;;;;;;;22.70;58.30;;;;;;5057995;28;19935;-80
2022/05/16 10:49:56;;;;;;;;;;;22.70;58.10;;;;;;5059760;28;19929;-77
2022/05/16 10:52:35;;;;;;;;;;;22.70;58.00;;;;;;5061769;28;19975;-76
2022/05/16 10:55:01;;;;;;;;;;;22.80;58.00;;;;;;5056874;28;19933;-78
2022/05/16 10:57:34;;;;;;;;;;;22.80;57.90;;;;;;5062818;28;20312;-77
2022/05/16 11:00:07;;;;;;;;;;;22.80;57.80;;;;;;5059294;28;20492;-77
2022/05/16 11:02:47;;;;;;;;;;;22.80;57.70;;;;;;5056978;28;20432;-78
2022/05/16 11:05:20;;;;;;;;;;;22.80;57.50;;;;;;5058708;28;19932;-78
2022/05/16 11:07:52;;;;;;;;;;;22.90;57.40;;;;;;5061158;28;19939;-77
2022/05/16 11:10:22;;;;;;;;;;;22.90;57.20;;;;;;5055566;28;19932;-77
2022/05/16 11:12:52;;;;;;;;;;;23.00;57.10;;;;;;5057782;28;20408;-76
2022/05/16 11:15:24;;;;;;;;;;;23.00;56.90;;;;;;5055501;28;20013;-79
2022/05/16 11:17:55;;;;;;;;;;;23.00;56.80;;;;;;5057437;28;19981;-77
2022/05/16 11:20:26;;;;;;;;;;;23.00;56.90;;;;;;5058659;28;19928;-78
2022/05/16 11:22:58;;;;;;;;;;;23.10;57.00;;;;;;5059404;28;20020;-75
2022/05/16 11:25:27;;;;;;;;;;;23.10;57.60;;;;;;5057453;28;19928;-79
2022/05/16 11:27:58;;;;;;;;;;;23.10;57.90;;;;;;5055663;28;20355;-78
2022/05/16 11:30:31;;;;;;;;;;;23.10;58.70;;;;;;5061036;28;19936;-78
2022/05/16 11:33:03;;;;;;;;;;;23.10;59.40;;;;;;5058329;28;19932;-77
2022/05/16 11:35:34;;;;;;;;;;;23.10;59.80;;;;;;5055413;28;19940;-78
2022/05/16 11:38:10;;;;;;;;;;;23.10;59.90;;;;;;5055963;28;19975;-79
2022/05/16 11:40:38;;;;;;;;;;;23.10;59.80;;;;;;5053673;28;20018;-78
2022/05/16 11:43:09;;;;;;;;;;;23.10;59.90;;;;;;5061130;28;19932;-78
2022/05/16 11:45:49;;;;;;;;;;;23.10;59.80;;;;;;5058407;28;19939;-78
2022/05/16 11:48:23;;;;;;;;;;;23.10;59.90;;;;;;5057401;28;20332;-78
2022/05/16 11:50:52;;;;;;;;;;;23.00;59.90;;;;;;5062660;28;19932;-80
2022/05/16 11:53:34;;;;;;;;;;;23.00;60.00;;;;;;5054804;28;19932;-78
2022/05/16 12:01:31;;;;;;;;;;;22.90;61.00;;;;;;5057893;28;20865;-78
2022/05/16 12:04:05;;;;;;;;;;;22.90;61.20;;;;;;5057847;28;19928;-77
2022/05/16 12:06:33;;;;;;;;;;;22.80;61.60;;;;;;5062761;28;19932;-80
2022/05/16 12:09:15;;;;;;;;;;;22.80;61.60;;;;;;5056283;28;19933;-79
2022/05/16 12:11:49;;;;;;;;;;;22.80;62.00;;;;;;5059851;28;19932;-77
2022/05/16 12:14:23;;;;;;;;;;;22.70;62.20;;;;;;5055458;28;19990;-79
2022/05/16 12:16:58;;;;;;;;;;;22.70;62.50;;;;;;5054237;28;20137;-77
2022/05/16 12:19:26;;;;;;;;;;;22.70;62.50;;;;;;5055456;28;20459;-77
2022/05/16 12:21:57;;;;;;;;;;;22.60;62.70;;;;;;5055386;28;19933;-76
2022/05/16 12:24:31;;;;;;;;;;;22.60;62.90;;;;;;5057782;28;19935;-77
2022/05/16 12:27:06;;;;;;;;;;;22.60;63.00;;;;;;5058091;28;20320;-78
2022/05/16 12:29:48;;;;;;;;;;;22.50;63.40;;;;;;5056069;28;19928;-80
2022/05/16 12:32:22;;;;;;;;;;;22.50;63.70;;;;;;5055710;28;19932;-79
2022/05/16 12:34:50;;;;;;;;;;;22.50;64.20;;;;;;5058116;28;20561;-76
2022/05/16 12:37:18;;;;;;;;;;;22.40;64.40;;;;;;5058825;28;19929;-76
2022/05/16 12:39:54;;;;;;;;;;;22.40;64.70;;;;;;5058053;28;20316;-77
2022/05/16 12:42:26;;;;;;;;;;;22.40;64.60;;;;;;5058665;28;20415;-80
2022/05/16 12:44:55;;;;;;;;;;;22.30;65.00;;;;;;5055245;28;19928;-77
2022/05/16 12:47:48;;;;;;;;;;;22.30;65.50;;;;;;5055471;28;20304;-78
2022/05/16 12:50:22;;;;;;;;;;;22.30;65.60;;;;;;5058037;28;19936;-78
2022/05/16 12:53:00;;;;;;;;;;;22.30;66.40;;;;;;5057388;28;19936;-78
2022/05/16 12:55:39;;;;;;;;;;;22.30;66.30;;;;;;5057815;28;19933;-78
2022/05/16 12:58:08;;;;;;;;;;;22.40;66.00;;;;;;5056965;28;19929;-77
2022/05/16 13:00:38;;;;;;;;;;;22.40;65.50;;;;;;5057173;28;19936;-78
2022/05/16 13:03:18;;;;;;;;;;;22.40;65.10;;;;;;5058390;28;19928;-78
2022/05/16 13:05:46;;;;;;;;;;;22.50;64.90;;;;;;5058899;28;20486;-78
2022/05/16 13:08:21;;;;;;;;;;;22.50;64.40;;;;;;5057824;28;19928;-78
2022/05/16 13:10:52;;;;;;;;;;;22.60;64.00;;;;;;5057059;28;20655;-77
2022/05/16 13:13:30;;;;;;;;;;;22.70;63.40;;;;;;5059164;28;19936;-81
2022/05/16 13:16:01;;;;;;;;;;;22.70;63.10;;;;;;5056516;28;19928;-77
2022/05/16 13:18:30;;;;;;;;;;;22.80;62.70;;;;;;5056360;28;19929;-76
2022/05/16 13:21:01;;;;;;;;;;;22.80;62.40;;;;;;5057914;28;19928;-78
2022/05/16 13:23:28;;;;;;;;;;;22.90;62.20;;;;;;5058672;28;19951;-78
2022/05/16 13:31:35;;;;;;;;;;;23.10;61.60;;;;;;5059676;28;20297;-79
2022/05/16 13:34:02;;;;;;;;;;;23.10;61.20;;;;;;5060753;28;19932;-81
2022/05/16 13:36:29;;;;;;;;;;;23.20;61.20;;;;;;5058756;28;19933;-77
2022/05/16 13:38:56;;;;;;;;;;;23.20;61.10;;;;;;5051889;28;19990;-71
2022/05/16 13:41:25;;;;;;;;;;;23.30;61.10;;;;;;5056711;28;19998;-69
2022/05/16 13:43:52;;;;;;;;;;;23.30;60.90;;;;;;5053774;28;19932;-71
2022/05/16 13:46:19;;;;;;;;;;;23.30;60.70;;;;;;5058450;28;19932;-67
2022/05/16 13:48:54;;;;;;;;;;;23.40;60.30;;;;;;5056420;28;19936;-71
2022/05/16 13:51:21;;;;;;;;;;;23.40;60.20;;;;;;5052772;28;19936;-67
2022/05/16 13:53:48;;;;;;;;;;;23.40;60.00;;;;;;5057046;28;19929;-66
2022/05/16 13:56:14;;;;;;;;;;;23.40;60.00;;;;;;5056226;28;19928;-68
2022/05/16 13:58:42;;;;;;;;;;;23.40;59.90;;;;;;5058877;28;20444;-69
2022/05/16 14:01:15;;;;;;;;;;;23.50;59.90;;;;;;5053466;28;19936;-70
2022/05/16 14:03:46;;;;;;;;;;;23.50;59.80;;;;;;5059288;28;19929;-68
2022/05/16 14:06:12;;;;;;;;;;;23.50;59.60;;;;;;5059594;28;19933;-70
2022/05/16 14:08:40;;;;;;;;;;;23.50;59.50;;;;;;5055969;28;19932;-69
2022/05/16 14:11:07;;;;;;;;;;;23.60;59.50;;;;;;5060174;28;20588;-67
2022/05/16 14:13:36;;;;;;;;;;;23.60;59.30;;;;;;5058008;28;20487;-72
2022/05/16 14:16:06;;;;;;;;;;;23.60;59.20;;;;;;5055998;28;20478;-67
2022/05/16 14:18:38;;;;;;;;;;;23.70;59.10;;;;;;5054420;28;20027;-69
2022/05/16 14:21:05;;;;;;;;;;;23.80;59.00;;;;;;5060275;28;19924;-68
2022/05/16 14:23:40;;;;;;;;;;;23.80;59.10;;;;;;5052084;28;20651;-72
2022/05/16 14:26:18;;;;;;;;;;;23.80;58.90;;;;;;5053809;28;19937;-68
2022/05/16 14:28:47;;;;;;;;;;;23.90;59.00;;;;;;5055802;28;20396;-71
2022/05/16 14:31:20;;;;;;;;;;;23.90;59.00;;;;;;5056327;28;19936;-67
2022/05/16 14:33:51;;;;;;;;;;;23.90;58.90;;;;;;5058128;28;19936;-69
2022/05/16 14:36:23;;;;;;;;;;;24.20;57.20;;;;;;5051658;28;19930;-69
2022/05/16 14:38:51;;;;;;;;;;;24.30;57.00;;;;;;5053903;28;19930;-68
2022/05/16 14:41:20;;;;;;;;;;;24.40;56.80;;;;;;5055544;28;19928;-68
2022/05/16 14:43:55;;;;;;;;;;;24.60;56.60;;;;;;5056807;28;19943;-70
2022/05/16 14:46:45;;;;;;;;;;;24.70;56.40;;;;;;5059047;28;19929;-67
2022/05/16 14:49:13;;;;;;;;;;;24.80;56.00;;;;;;5050174;28;20029;-66
2022/05/16 14:51:40;;;;;;;;;;;24.90;56.00;;;;;;5055104;28;19928;-67
2022/05/16 14:54:14;;;;;;;;;;;25.00;55.90;;;;;;5053260;28;20025;-68
2022/05/16 14:56:40;;;;;;;;;;;25.00;55.80;;;;;;5057371;28;19935;-67
2022/05/16 14:59:07;;;;;;;;;;;25.10;55.80;;;;;;5058708;28;19935;-68
2022/05/16 15:04:19;;;;;;;;;;;25.20;55.80;;;;;;5055789;28;20058;-67
2022/05/16 15:06:46;;;;;;;;;;;25.20;55.70;;;;;;5052645;28;19929;-71
2022/05/16 15:09:14;;;;;;;;;;;25.20;55.70;;;;;;5058604;28;19939;-72
2022/05/16 15:11:43;;;;;;;;;;;25.20;56.30;;;;;;5061300;28;19928;-70
2022/05/16 15:14:10;;;;;;;;;;;25.20;55.60;;;;;;5059135;28;19939;-80
2022/05/16 15:16:39;;;;;;;;;;;25.20;55.60;;;;;;5055641;28;19929;-76